Weather at Sligo Airport

Public forecast

Using degrees Celsius for public forecast. Weather courtesy of forecast.io.

Current aviation weather report (METAR) for Sligo Airport

2024/02/24 16:00 (retrieved 18 minutes ago)

EISG 241600Z 28004KT CAVOK 08/06 Q0995

Closest aviation forecast (TAF) to Sligo Airport

Closest forecast is Ireland West Knock Airport, 23.5 nm (43.5 km) SSW.

2024/02/24 13:14 Ammendment (retrieved 3 hours ago)

TAF AMD EIKN 241305Z 2413/2512 30010KT 9999 FEW014 SCT025 TEMPO 2413/2416 VRB03KT BECMG 2416/2418 VRB03KT PROB40 TEMPO 2422/2508 3000 BR BKN005 BECMG 2423/2501 10010KT BECMG 2503/2505 06007KT BECMG 2508/2510 02010KT